Leslieville, Canada
Current Conditions -  °F | °C
As of 12:00 PM on Saturday 25 Oct 2014 (Local Time) from CYQF Reporting Station
Broken Clouds Broken Clouds  
Wind Chill: 32°   Ceiling: 6500
Heat Index: 41°   Visibility: 15mi
Dew Point: 27°   Wind: 17mph
Humidity: 57%   Direction: 130°SE
Pressure: 29.86"   Gusts: 24mph
Location:  52.38°N, 114.6°W
Report Text: CYQF 251800Z 13015G21KT 15SM BKN065 BKN090 05/M03 A2986 RMK SC6AC1 PRESFR SLP151
Loading
Personal Weather Stations






























Interactive Weather Map
Tropical Storm Tracking
New forecast layout! Learn more

10-Day Weather Forecast

Advertisements
Track Severe Weather on mobile